sensor_id;sensor_type;location;lat;lon;timestamp;P1;durP1;ratioP1;P2;durP2;ratioP2
61397;SDS011;47267;48.130;-2.040;2024-01-16T00:01:10;6.22;;;4.30;;
61397;SDS011;47267;48.130;-2.040;2024-01-16T00:03:37;6.47;;;4.68;;
61397;SDS011;47267;48.130;-2.040;2024-01-16T00:06:03;5.90;;;4.20;;
61397;SDS011;47267;48.130;-2.040;2024-01-16T00:08:29;6.28;;;4.13;;
61397;SDS011;47267;48.130;-2.040;2024-01-16T00:10:55;5.43;;;4.15;;
61397;SDS011;47267;48.130;-2.040;2024-01-16T00:13:20;6.75;;;4.60;;
61397;SDS011;47267;48.130;-2.040;2024-01-16T00:15:46;5.65;;;4.18;;
61397;SDS011;47267;48.130;-2.040;2024-01-16T00:18:12;5.75;;;4.40;;
61397;SDS011;47267;48.130;-2.040;2024-01-16T00:20:37;5.88;;;4.47;;
61397;SDS011;47267;48.130;-2.040;2024-01-16T00:23:03;5.57;;;4.38;;
61397;SDS011;47267;48.130;-2.040;2024-01-16T00:25:28;5.47;;;4.13;;
61397;SDS011;47267;48.130;-2.040;2024-01-16T00:27:54;6.47;;;4.10;;
61397;SDS011;47267;48.130;-2.040;2024-01-16T00:30:20;6.05;;;4.57;;
61397;SDS011;47267;48.130;-2.040;2024-01-16T00:32:46;5.30;;;4.13;;
61397;SDS011;47267;48.130;-2.040;2024-01-16T00:35:11;5.63;;;4.30;;
61397;SDS011;47267;48.130;-2.040;2024-01-16T00:37:37;6.45;;;4.35;;
61397;SDS011;47267;48.130;-2.040;2024-01-16T00:40:03;5.05;;;3.78;;
61397;SDS011;47267;48.130;-2.040;2024-01-16T00:42:30;6.53;;;4.55;;
61397;SDS011;47267;48.130;-2.040;2024-01-16T00:44:57;6.50;;;4.35;;
61397;SDS011;47267;48.130;-2.040;2024-01-16T00:47:23;6.38;;;4.22;;
61397;SDS011;47267;48.130;-2.040;2024-01-16T00:49:49;5.95;;;4.00;;
61397;SDS011;47267;48.130;-2.040;2024-01-16T00:52:15;7.13;;;4.50;;
61397;SDS011;47267;48.130;-2.040;2024-01-16T00:54:40;5.85;;;4.28;;
61397;SDS011;47267;48.130;-2.040;2024-01-16T00:57:07;5.05;;;3.70;;
61397;SDS011;47267;48.130;-2.040;2024-01-16T00:59:33;6.78;;;4.40;;
61397;SDS011;47267;48.130;-2.040;2024-01-16T01:01:58;6.90;;;4.63;;
61397;SDS011;47267;48.130;-2.040;2024-01-16T01:04:24;6.57;;;4.35;;
61397;SDS011;47267;48.130;-2.040;2024-01-16T01:06:50;6.47;;;4.22;;
61397;SDS011;47267;48.130;-2.040;2024-01-16T01:09:16;5.85;;;3.78;;
61397;SDS011;47267;48.130;-2.040;2024-01-16T01:11:42;6.00;;;3.78;;
61397;SDS011;47267;48.130;-2.040;2024-01-16T01:14:08;6.25;;;4.25;;
61397;SDS011;47267;48.130;-2.040;2024-01-16T01:16:34;7.85;;;4.13;;
61397;SDS011;47267;48.130;-2.040;2024-01-16T01:18:59;7.35;;;4.13;;
61397;SDS011;47267;48.130;-2.040;2024-01-16T01:21:25;5.63;;;3.80;;
61397;SDS011;47267;48.130;-2.040;2024-01-16T01:23:51;6.00;;;4.13;;
61397;SDS011;47267;48.130;-2.040;2024-01-16T01:26:17;5.25;;;4.07;;
61397;SDS011;47267;48.130;-2.040;2024-01-16T01:28:45;6.00;;;4.03;;
61397;SDS011;47267;48.130;-2.040;2024-01-16T01:31:11;6.00;;;4.25;;
61397;SDS011;47267;48.130;-2.040;2024-01-16T01:33:37;5.20;;;3.83;;
61397;SDS011;47267;48.130;-2.040;2024-01-16T01:36:04;5.65;;;3.85;;
61397;SDS011;47267;48.130;-2.040;2024-01-16T01:38:30;5.30;;;3.95;;
61397;SDS011;47267;48.130;-2.040;2024-01-16T01:40:56;6.20;;;3.88;;
61397;SDS011;47267;48.130;-2.040;2024-01-16T01:43:22;5.22;;;3.70;;
61397;SDS011;47267;48.130;-2.040;2024-01-16T01:48:40;6.63;;;4.10;;
61397;SDS011;47267;48.130;-2.040;2024-01-16T01:51:07;5.40;;;3.97;;
61397;SDS011;47267;48.130;-2.040;2024-01-16T01:53:33;4.93;;;3.65;;
61397;SDS011;47267;48.130;-2.040;2024-01-16T01:56:02;4.93;;;3.45;;
61397;SDS011;47267;48.130;-2.040;2024-01-16T01:58:31;5.40;;;3.72;;
61397;SDS011;47267;48.130;-2.040;2024-01-16T02:00:58;5.53;;;3.80;;
61397;SDS011;47267;48.130;-2.040;2024-01-16T02:03:26;5.90;;;4.13;;
61397;SDS011;47267;48.130;-2.040;2024-01-16T02:05:53;5.85;;;4.13;;
61397;SDS011;47267;48.130;-2.040;2024-01-16T02:08:20;4.57;;;3.58;;
61397;SDS011;47267;48.130;-2.040;2024-01-16T02:10:46;5.70;;;4.05;;
61397;SDS011;47267;48.130;-2.040;2024-01-16T02:13:14;5.95;;;3.90;;
61397;SDS011;47267;48.130;-2.040;2024-01-16T02:15:40;5.10;;;3.55;;
61397;SDS011;47267;48.130;-2.040;2024-01-16T02:18:06;5.55;;;3.80;;
61397;SDS011;47267;48.130;-2.040;2024-01-16T02:20:32;4.70;;;3.53;;
61397;SDS011;47267;48.130;-2.040;2024-01-16T02:22:59;6.25;;;3.85;;
61397;SDS011;47267;48.130;-2.040;2024-01-16T02:25:28;5.60;;;3.72;;
61397;SDS011;47267;48.130;-2.040;2024-01-16T02:27:54;4.18;;;3.33;;
61397;SDS011;47267;48.130;-2.040;2024-01-16T02:30:20;5.20;;;3.67;;
61397;SDS011;47267;48.130;-2.040;2024-01-16T02:32:46;5.28;;;3.28;;
61397;SDS011;47267;48.130;-2.040;2024-01-16T02:35:11;5.38;;;3.88;;
61397;SDS011;47267;48.130;-2.040;2024-01-16T02:37:37;5.35;;;3.53;;
61397;SDS011;47267;48.130;-2.040;2024-01-16T02:40:03;5.15;;;3.50;;
61397;SDS011;47267;48.130;-2.040;2024-01-16T02:42:32;6.18;;;3.55;;
61397;SDS011;47267;48.130;-2.040;2024-01-16T02:44:58;5.88;;;3.53;;
61397;SDS011;47267;48.130;-2.040;2024-01-16T02:47:23;5.03;;;3.20;;
61397;SDS011;47267;48.130;-2.040;2024-01-16T02:49:49;5.00;;;3.63;;
61397;SDS011;47267;48.130;-2.040;2024-01-16T02:52:15;4.53;;;3.60;;
61397;SDS011;47267;48.130;-2.040;2024-01-16T02:54:41;5.20;;;3.42;;
61397;SDS011;47267;48.130;-2.040;2024-01-16T02:57:06;4.60;;;3.38;;
61397;SDS011;47267;48.130;-2.040;2024-01-16T02:59:32;4.38;;;3.10;;
61397;SDS011;47267;48.130;-2.040;2024-01-16T03:01:58;5.45;;;3.72;;
61397;SDS011;47267;48.130;-2.040;2024-01-16T03:04:23;5.05;;;3.50;;
61397;SDS011;47267;48.130;-2.040;2024-01-16T03:06:49;5.00;;;3.58;;
61397;SDS011;47267;48.130;-2.040;2024-01-16T03:09:15;4.78;;;3.30;;
61397;SDS011;47267;48.130;-2.040;2024-01-16T03:11:41;5.82;;;3.60;;
61397;SDS011;47267;48.130;-2.040;2024-01-16T03:14:06;4.72;;;3.40;;
61397;SDS011;47267;48.130;-2.040;2024-01-16T03:16:32;5.85;;;3.60;;
61397;SDS011;47267;48.130;-2.040;2024-01-16T03:18:58;4.72;;;3.53;;
61397;SDS011;47267;48.130;-2.040;2024-01-16T03:21:23;5.75;;;3.35;;
61397;SDS011;47267;48.130;-2.040;2024-01-16T03:23:49;5.43;;;3.50;;
61397;SDS011;47267;48.130;-2.040;2024-01-16T03:26:15;5.10;;;3.55;;
61397;SDS011;47267;48.130;-2.040;2024-01-16T03:28:41;4.30;;;3.28;;
61397;SDS011;47267;48.130;-2.040;2024-01-16T03:31:07;5.03;;;3.25;;
61397;SDS011;47267;48.130;-2.040;2024-01-16T03:33:33;5.18;;;3.28;;
61397;SDS011;47267;48.130;-2.040;2024-01-16T03:36:00;5.18;;;3.20;;
61397;SDS011;47267;48.130;-2.040;2024-01-16T03:38:26;5.57;;;3.20;;
61397;SDS011;47267;48.130;-2.040;2024-01-16T03:40:52;4.32;;;3.47;;
61397;SDS011;47267;48.130;-2.040;2024-01-16T03:43:18;5.18;;;3.38;;
61397;SDS011;47267;48.130;-2.040;2024-01-16T03:45:43;4.28;;;3.17;;
61397;SDS011;47267;48.130;-2.040;2024-01-16T03:48:09;5.50;;;3.13;;
61397;SDS011;47267;48.130;-2.040;2024-01-16T03:50:35;5.25;;;3.53;;
61397;SDS011;47267;48.130;-2.040;2024-01-16T03:53:01;5.22;;;3.15;;
61397;SDS011;47267;48.130;-2.040;2024-01-16T03:55:29;5.75;;;3.72;;
61397;SDS011;47267;48.130;-2.040;2024-01-16T03:57:56;5.05;;;3.38;;
61397;SDS011;47267;48.130;-2.040;2024-01-16T04:00:22;5.30;;;3.30;;
61397;SDS011;47267;48.130;-2.040;2024-01-16T04:02:47;5.05;;;3.20;;
61397;SDS011;47267;48.130;-2.040;2024-01-16T04:05:13;4.75;;;3.10;;
61397;SDS011;47267;48.130;-2.040;2024-01-16T04:07:39;5.97;;;3.50;;
61397;SDS011;47267;48.130;-2.040;2024-01-16T04:10:05;5.80;;;3.30;;
61397;SDS011;47267;48.130;-2.040;2024-01-16T04:12:32;4.70;;;3.20;;
61397;SDS011;47267;48.130;-2.040;2024-01-16T04:14:57;5.22;;;3.22;;
61397;SDS011;47267;48.130;-2.040;2024-01-16T04:17:23;5.22;;;3.60;;
61397;SDS011;47267;48.130;-2.040;2024-01-16T04:19:49;4.65;;;3.28;;
61397;SDS011;47267;48.130;-2.040;2024-01-16T04:22:14;4.78;;;3.17;;
61397;SDS011;47267;48.130;-2.040;2024-01-16T04:24:40;4.40;;;3.15;;
61397;SDS011;47267;48.130;-2.040;2024-01-16T04:27:05;4.75;;;3.45;;
61397;SDS011;47267;48.130;-2.040;2024-01-16T04:29:31;4.72;;;3.08;;
61397;SDS011;47267;48.130;-2.040;2024-01-16T04:31:58;5.30;;;3.17;;
61397;SDS011;47267;48.130;-2.040;2024-01-16T04:34:23;5.00;;;3.10;;
61397;SDS011;47267;48.130;-2.040;2024-01-16T04:36:49;5.18;;;3.30;;
61397;SDS011;47267;48.130;-2.040;2024-01-16T04:39:15;6.10;;;3.35;;
61397;SDS011;47267;48.130;-2.040;2024-01-16T04:41:40;5.95;;;3.53;;
61397;SDS011;47267;48.130;-2.040;2024-01-16T04:44:06;4.72;;;3.22;;
61397;SDS011;47267;48.130;-2.040;2024-01-16T04:46:32;4.00;;;2.95;;
61397;SDS011;47267;48.130;-2.040;2024-01-16T04:48:57;5.00;;;3.00;;
61397;SDS011;47267;48.130;-2.040;2024-01-16T04:51:23;4.57;;;3.45;;
61397;SDS011;47267;48.130;-2.040;2024-01-16T04:53:49;4.38;;;3.35;;
61397;SDS011;47267;48.130;-2.040;2024-01-16T04:56:15;6.18;;;3.13;;
61397;SDS011;47267;48.130;-2.040;2024-01-16T04:58:40;5.65;;;3.42;;
61397;SDS011;47267;48.130;-2.040;2024-01-16T05:01:06;5.53;;;3.35;;
61397;SDS011;47267;48.130;-2.040;2024-01-16T05:03:32;5.35;;;3.35;;
61397;SDS011;47267;48.130;-2.040;2024-01-16T05:05:57;5.60;;;3.08;;
61397;SDS011;47267;48.130;-2.040;2024-01-16T05:08:23;4.50;;;3.17;;
61397;SDS011;47267;48.130;-2.040;2024-01-16T05:10:49;4.85;;;3.05;;
61397;SDS011;47267;48.130;-2.040;2024-01-16T05:13:14;4.38;;;3.03;;
61397;SDS011;47267;48.130;-2.040;2024-01-16T05:15:40;6.50;;;3.22;;
61397;SDS011;47267;48.130;-2.040;2024-01-16T05:18:07;4.93;;;3.08;;
61397;SDS011;47267;48.130;-2.040;2024-01-16T05:20:34;4.57;;;3.28;;
61397;SDS011;47267;48.130;-2.040;2024-01-16T05:23:00;5.13;;;3.47;;
61397;SDS011;47267;48.130;-2.040;2024-01-16T05:25:25;5.47;;;3.05;;
61397;SDS011;47267;48.130;-2.040;2024-01-16T05:27:51;4.40;;;3.22;;
61397;SDS011;47267;48.130;-2.040;2024-01-16T05:30:16;5.65;;;3.22;;
61397;SDS011;47267;48.130;-2.040;2024-01-16T05:32:42;4.85;;;3.40;;
61397;SDS011;47267;48.130;-2.040;2024-01-16T05:35:08;4.72;;;3.10;;
61397;SDS011;47267;48.130;-2.040;2024-01-16T05:37:34;5.10;;;3.20;;
61397;SDS011;47267;48.130;-2.040;2024-01-16T05:40:00;5.05;;;3.33;;
61397;SDS011;47267;48.130;-2.040;2024-01-16T05:42:28;4.93;;;3.22;;
61397;SDS011;47267;48.130;-2.040;2024-01-16T05:44:54;4.72;;;3.30;;
61397;SDS011;47267;48.130;-2.040;2024-01-16T05:47:19;4.82;;;3.35;;
61397;SDS011;47267;48.130;-2.040;2024-01-16T05:49:45;4.70;;;3.10;;
61397;SDS011;47267;48.130;-2.040;2024-01-16T05:52:10;5.68;;;3.55;;
61397;SDS011;47267;48.130;-2.040;2024-01-16T05:54:36;5.90;;;3.35;;
61397;SDS011;47267;48.130;-2.040;2024-01-16T05:57:02;5.63;;;3.58;;
61397;SDS011;47267;48.130;-2.040;2024-01-16T05:59:28;4.93;;;3.35;;
61397;SDS011;47267;48.130;-2.040;2024-01-16T06:01:54;5.13;;;3.45;;
61397;SDS011;47267;48.130;-2.040;2024-01-16T06:04:19;4.45;;;3.50;;
61397;SDS011;47267;48.130;-2.040;2024-01-16T06:06:45;5.18;;;3.45;;
61397;SDS011;47267;48.130;-2.040;2024-01-16T06:09:12;4.70;;;3.33;;
61397;SDS011;47267;48.130;-2.040;2024-01-16T06:11:39;4.75;;;3.20;;
61397;SDS011;47267;48.130;-2.040;2024-01-16T06:14:08;5.00;;;3.42;;
61397;SDS011;47267;48.130;-2.040;2024-01-16T06:16:34;5.15;;;3.47;;
61397;SDS011;47267;48.130;-2.040;2024-01-16T06:19:00;5.25;;;3.33;;
61397;SDS011;47267;48.130;-2.040;2024-01-16T06:21:27;5.20;;;3.75;;
61397;SDS011;47267;48.130;-2.040;2024-01-16T06:23:52;6.20;;;3.63;;
61397;SDS011;47267;48.130;-2.040;2024-01-16T06:26:18;4.40;;;3.20;;
61397;SDS011;47267;48.130;-2.040;2024-01-16T06:28:44;5.05;;;3.15;;
61397;SDS011;47267;48.130;-2.040;2024-01-16T06:31:10;4.38;;;2.88;;
61397;SDS011;47267;48.130;-2.040;2024-01-16T06:33:36;6.57;;;3.20;;
61397;SDS011;47267;48.130;-2.040;2024-01-16T06:36:02;5.10;;;3.05;;
61397;SDS011;47267;48.130;-2.040;2024-01-16T06:38:31;4.30;;;3.00;;
61397;SDS011;47267;48.130;-2.040;2024-01-16T06:40:57;5.43;;;3.63;;
61397;SDS011;47267;48.130;-2.040;2024-01-16T06:43:23;5.97;;;3.33;;
61397;SDS011;47267;48.130;-2.040;2024-01-16T06:45:49;6.28;;;3.67;;
61397;SDS011;47267;48.130;-2.040;2024-01-16T06:48:15;5.28;;;3.03;;
61397;SDS011;47267;48.130;-2.040;2024-01-16T06:50:41;5.80;;;3.55;;
61397;SDS011;47267;48.130;-2.040;2024-01-16T06:53:07;6.20;;;3.45;;
61397;SDS011;47267;48.130;-2.040;2024-01-16T06:55:32;9.23;;;3.95;;
61397;SDS011;47267;48.130;-2.040;2024-01-16T06:57:58;7.07;;;3.90;;
61397;SDS011;47267;48.130;-2.040;2024-01-16T07:00:24;6.47;;;3.67;;
61397;SDS011;47267;48.130;-2.040;2024-01-16T07:02:52;7.20;;;3.92;;
61397;SDS011;47267;48.130;-2.040;2024-01-16T07:05:19;7.45;;;3.58;;
61397;SDS011;47267;48.130;-2.040;2024-01-16T07:07:46;6.75;;;3.70;;
61397;SDS011;47267;48.130;-2.040;2024-01-16T07:10:12;9.52;;;4.30;;
61397;SDS011;47267;48.130;-2.040;2024-01-16T07:12:43;6.63;;;3.90;;
61397;SDS011;47267;48.130;-2.040;2024-01-16T07:15:09;7.72;;;4.45;;
61397;SDS011;47267;48.130;-2.040;2024-01-16T07:17:35;7.10;;;3.78;;
61397;SDS011;47267;48.130;-2.040;2024-01-16T07:20:01;8.27;;;3.97;;
61397;SDS011;47267;48.130;-2.040;2024-01-16T07:22:27;8.30;;;3.78;;
61397;SDS011;47267;48.130;-2.040;2024-01-16T07:24:52;7.35;;;4.18;;
61397;SDS011;47267;48.130;-2.040;2024-01-16T07:27:18;7.75;;;4.35;;
61397;SDS011;47267;48.130;-2.040;2024-01-16T07:29:44;9.70;;;4.20;;
61397;SDS011;47267;48.130;-2.040;2024-01-16T07:32:10;7.30;;;3.75;;
61397;SDS011;47267;48.130;-2.040;2024-01-16T07:34:36;7.22;;;4.18;;
61397;SDS011;47267;48.130;-2.040;2024-01-16T07:37:01;7.78;;;4.20;;
61397;SDS011;47267;48.130;-2.040;2024-01-16T07:39:27;8.40;;;4.32;;
61397;SDS011;47267;48.130;-2.040;2024-01-16T07:41:53;6.97;;;4.07;;
61397;SDS011;47267;48.130;-2.040;2024-01-16T07:44:19;6.85;;;3.65;;
61397;SDS011;47267;48.130;-2.040;2024-01-16T07:46:44;7.93;;;4.05;;
61397;SDS011;47267;48.130;-2.040;2024-01-16T07:49:10;8.23;;;3.95;;
61397;SDS011;47267;48.130;-2.040;2024-01-16T07:51:35;7.57;;;4.53;;
61397;SDS011;47267;48.130;-2.040;2024-01-16T07:54:05;8.02;;;4.38;;
61397;SDS011;47267;48.130;-2.040;2024-01-16T07:56:32;6.75;;;4.07;;
61397;SDS011;47267;48.130;-2.040;2024-01-16T07:58:58;6.55;;;3.60;;
61397;SDS011;47267;48.130;-2.040;2024-01-16T08:01:24;7.65;;;4.07;;
61397;SDS011;47267;48.130;-2.040;2024-01-16T08:03:50;10.20;;;4.47;;
61397;SDS011;47267;48.130;-2.040;2024-01-16T08:06:15;9.93;;;4.63;;
61397;SDS011;47267;48.130;-2.040;2024-01-16T08:08:41;6.15;;;3.72;;
61397;SDS011;47267;48.130;-2.040;2024-01-16T08:11:07;8.02;;;4.22;;
61397;SDS011;47267;48.130;-2.040;2024-01-16T08:13:33;8.30;;;4.47;;
61397;SDS011;47267;48.130;-2.040;2024-01-16T08:15:58;7.93;;;4.18;;
61397;SDS011;47267;48.130;-2.040;2024-01-16T08:18:24;7.30;;;4.28;;
61397;SDS011;47267;48.130;-2.040;2024-01-16T08:20:50;7.47;;;4.07;;
61397;SDS011;47267;48.130;-2.040;2024-01-16T08:23:15;8.20;;;4.35;;
61397;SDS011;47267;48.130;-2.040;2024-01-16T08:25:41;7.53;;;4.35;;
61397;SDS011;47267;48.130;-2.040;2024-01-16T08:28:07;8.50;;;4.47;;
61397;SDS011;47267;48.130;-2.040;2024-01-16T08:30:32;8.10;;;3.80;;
61397;SDS011;47267;48.130;-2.040;2024-01-16T08:32:58;6.82;;;4.05;;
61397;SDS011;47267;48.130;-2.040;2024-01-16T08:35:24;7.35;;;4.28;;
61397;SDS011;47267;48.130;-2.040;2024-01-16T08:37:50;6.47;;;4.30;;
61397;SDS011;47267;48.130;-2.040;2024-01-16T08:40:15;8.88;;;3.85;;
61397;SDS011;47267;48.130;-2.040;2024-01-16T08:42:41;6.30;;;3.58;;
61397;SDS011;47267;48.130;-2.040;2024-01-16T08:45:07;5.80;;;3.70;;
61397;SDS011;47267;48.130;-2.040;2024-01-16T08:47:32;7.05;;;4.13;;
61397;SDS011;47267;48.130;-2.040;2024-01-16T08:49:58;5.97;;;3.70;;
61397;SDS011;47267;48.130;-2.040;2024-01-16T08:52:24;6.13;;;3.90;;
61397;SDS011;47267;48.130;-2.040;2024-01-16T08:54:49;7.70;;;3.83;;
61397;SDS011;47267;48.130;-2.040;2024-01-16T08:57:15;6.93;;;3.70;;
61397;SDS011;47267;48.130;-2.040;2024-01-16T08:59:41;5.55;;;3.80;;
61397;SDS011;47267;48.130;-2.040;2024-01-16T09:02:07;7.95;;;3.78;;
61397;SDS011;47267;48.130;-2.040;2024-01-16T09:04:32;6.35;;;3.97;;
61397;SDS011;47267;48.130;-2.040;2024-01-16T09:06:59;7.50;;;4.13;;
61397;SDS011;47267;48.130;-2.040;2024-01-16T09:09:29;6.78;;;3.92;;
61397;SDS011;47267;48.130;-2.040;2024-01-16T09:11:55;6.05;;;3.75;;
61397;SDS011;47267;48.130;-2.040;2024-01-16T09:14:23;5.18;;;3.75;;
61397;SDS011;47267;48.130;-2.040;2024-01-16T09:16:48;5.85;;;3.83;;
61397;SDS011;47267;48.130;-2.040;2024-01-16T09:19:14;6.72;;;4.18;;
61397;SDS011;47267;48.130;-2.040;2024-01-16T09:21:39;6.65;;;4.20;;
61397;SDS011;47267;48.130;-2.040;2024-01-16T09:24:05;7.32;;;4.20;;
61397;SDS011;47267;48.130;-2.040;2024-01-16T09:26:31;6.55;;;4.10;;
61397;SDS011;47267;48.130;-2.040;2024-01-16T09:28:57;7.15;;;4.25;;
61397;SDS011;47267;48.130;-2.040;2024-01-16T09:31:22;6.95;;;3.95;;
61397;SDS011;47267;48.130;-2.040;2024-01-16T09:33:48;6.22;;;4.10;;
61397;SDS011;47267;48.130;-2.040;2024-01-16T09:36:14;7.32;;;4.30;;
61397;SDS011;47267;48.130;-2.040;2024-01-16T09:38:40;6.97;;;3.85;;
61397;SDS011;47267;48.130;-2.040;2024-01-16T09:41:06;9.07;;;4.50;;
61397;SDS011;47267;48.130;-2.040;2024-01-16T09:43:32;7.55;;;4.35;;
61397;SDS011;47267;48.130;-2.040;2024-01-16T09:46:02;6.38;;;4.53;;
61397;SDS011;47267;48.130;-2.040;2024-01-16T09:48:30;6.70;;;4.40;;
61397;SDS011;47267;48.130;-2.040;2024-01-16T09:50:56;6.28;;;4.03;;
61397;SDS011;47267;48.130;-2.040;2024-01-16T09:53:22;8.15;;;4.75;;
61397;SDS011;47267;48.130;-2.040;2024-01-16T09:55:49;6.65;;;4.50;;
61397;SDS011;47267;48.130;-2.040;2024-01-16T09:58:15;8.70;;;4.60;;
61397;SDS011;47267;48.130;-2.040;2024-01-16T10:00:44;5.82;;;4.28;;
61397;SDS011;47267;48.130;-2.040;2024-01-16T10:03:12;6.63;;;4.60;;
61397;SDS011;47267;48.130;-2.040;2024-01-16T10:05:42;7.95;;;5.40;;
61397;SDS011;47267;48.130;-2.040;2024-01-16T10:08:08;6.50;;;4.38;;
61397;SDS011;47267;48.130;-2.040;2024-01-16T10:10:34;8.30;;;4.32;;
61397;SDS011;47267;48.130;-2.040;2024-01-16T10:13:00;6.78;;;4.47;;
61397;SDS011;47267;48.130;-2.040;2024-01-16T10:15:25;7.65;;;4.78;;
61397;SDS011;47267;48.130;-2.040;2024-01-16T10:17:51;5.35;;;3.78;;
61397;SDS011;47267;48.130;-2.040;2024-01-16T10:20:18;7.68;;;4.75;;
61397;SDS011;47267;48.130;-2.040;2024-01-16T10:23:01;7.13;;;4.35;;
61397;SDS011;47267;48.130;-2.040;2024-01-16T10:25:28;6.05;;;4.07;;
61397;SDS011;47267;48.130;-2.040;2024-01-16T10:28:04;7.43;;;4.10;;
61397;SDS011;47267;48.130;-2.040;2024-01-16T10:30:33;6.35;;;4.22;;
61397;SDS011;47267;48.130;-2.040;2024-01-16T10:33:11;6.60;;;4.22;;
61397;SDS011;47267;48.130;-2.040;2024-01-16T10:35:41;5.80;;;4.07;;
61397;SDS011;47267;48.130;-2.040;2024-01-16T10:38:06;5.82;;;3.92;;
61397;SDS011;47267;48.130;-2.040;2024-01-16T10:40:32;5.75;;;4.05;;
61397;SDS011;47267;48.130;-2.040;2024-01-16T10:43:02;6.20;;;4.00;;
61397;SDS011;47267;48.130;-2.040;2024-01-16T10:45:29;8.18;;;4.10;;
61397;SDS011;47267;48.130;-2.040;2024-01-16T10:48:02;5.88;;;4.10;;
61397;SDS011;47267;48.130;-2.040;2024-01-16T10:50:33;6.38;;;4.07;;
61397;SDS011;47267;48.130;-2.040;2024-01-16T10:53:04;6.97;;;4.18;;
61397;SDS011;47267;48.130;-2.040;2024-01-16T10:55:38;5.70;;;4.10;;
61397;SDS011;47267;48.130;-2.040;2024-01-16T10:58:18;6.72;;;4.20;;
61397;SDS011;47267;48.130;-2.040;2024-01-16T11:00:47;6.03;;;4.03;;
61397;SDS011;47267;48.130;-2.040;2024-01-16T11:03:24;5.72;;;3.85;;
61397;SDS011;47267;48.130;-2.040;2024-01-16T11:05:57;6.05;;;4.00;;
61397;SDS011;47267;48.130;-2.040;2024-01-16T11:08:23;4.95;;;3.55;;
61397;SDS011;47267;48.130;-2.040;2024-01-16T11:10:55;4.95;;;3.95;;
61397;SDS011;47267;48.130;-2.040;2024-01-16T11:13:22;5.75;;;3.97;;
61397;SDS011;47267;48.130;-2.040;2024-01-16T11:15:49;5.55;;;3.70;;
61397;SDS011;47267;48.130;-2.040;2024-01-16T11:18:16;5.60;;;4.00;;
61397;SDS011;47267;48.130;-2.040;2024-01-16T11:20:42;5.13;;;3.92;;
61397;SDS011;47267;48.130;-2.040;2024-01-16T11:23:10;8.02;;;4.28;;
61397;SDS011;47267;48.130;-2.040;2024-01-16T11:25:38;6.18;;;4.13;;
61397;SDS011;47267;48.130;-2.040;2024-01-16T11:28:08;4.43;;;3.53;;
61397;SDS011;47267;48.130;-2.040;2024-01-16T11:30:36;6.63;;;3.92;;
61397;SDS011;47267;48.130;-2.040;2024-01-16T11:33:02;4.85;;;3.33;;
61397;SDS011;47267;48.130;-2.040;2024-01-16T11:38:10;5.25;;;3.42;;
61397;SDS011;47267;48.130;-2.040;2024-01-16T11:40:46;4.72;;;3.67;;
61397;SDS011;47267;48.130;-2.040;2024-01-16T11:45:57;6.15;;;3.83;;
61397;SDS011;47267;48.130;-2.040;2024-01-16T11:48:32;6.05;;;3.75;;
61397;SDS011;47267;48.130;-2.040;2024-01-16T11:50:58;5.65;;;3.72;;
61397;SDS011;47267;48.130;-2.040;2024-01-16T12:01:52;4.80;;;3.45;;
61397;SDS011;47267;48.130;-2.040;2024-01-16T12:04:22;3.90;;;3.22;;
61397;SDS011;47267;48.130;-2.040;2024-01-16T12:06:57;5.13;;;3.40;;
61397;SDS011;47267;48.130;-2.040;2024-01-16T12:09:25;4.82;;;3.22;;
61397;SDS011;47267;48.130;-2.040;2024-01-16T12:11:56;5.15;;;3.40;;
61397;SDS011;47267;48.130;-2.040;2024-01-16T12:14:23;4.90;;;3.22;;
61397;SDS011;47267;48.130;-2.040;2024-01-16T12:16:49;4.38;;;3.13;;
61397;SDS011;47267;48.130;-2.040;2024-01-16T12:19:14;5.38;;;3.22;;
61397;SDS011;47267;48.130;-2.040;2024-01-16T12:21:41;5.07;;;3.58;;
61397;SDS011;47267;48.130;-2.040;2024-01-16T12:24:09;4.85;;;3.17;;
61397;SDS011;47267;48.130;-2.040;2024-01-16T12:26:38;4.43;;;3.35;;
61397;SDS011;47267;48.130;-2.040;2024-01-16T12:29:04;4.90;;;2.97;;
61397;SDS011;47267;48.130;-2.040;2024-01-16T12:31:31;4.97;;;3.40;;
61397;SDS011;47267;48.130;-2.040;2024-01-16T12:34:06;4.90;;;3.00;;
61397;SDS011;47267;48.130;-2.040;2024-01-16T12:36:35;4.07;;;2.90;;
61397;SDS011;47267;48.130;-2.040;2024-01-16T12:39:01;5.38;;;3.22;;
61397;SDS011;47267;48.130;-2.040;2024-01-16T12:41:32;4.63;;;3.00;;
61397;SDS011;47267;48.130;-2.040;2024-01-16T12:44:01;4.07;;;3.00;;
61397;SDS011;47267;48.130;-2.040;2024-01-16T12:46:27;3.67;;;2.90;;
61397;SDS011;47267;48.130;-2.040;2024-01-16T12:48:59;4.82;;;2.83;;
61397;SDS011;47267;48.130;-2.040;2024-01-16T12:51:26;3.70;;;3.00;;
61397;SDS011;47267;48.130;-2.040;2024-01-16T12:53:52;5.70;;;3.00;;
61397;SDS011;47267;48.130;-2.040;2024-01-16T12:56:18;5.10;;;2.95;;
61397;SDS011;47267;48.130;-2.040;2024-01-16T12:58:45;4.05;;;2.80;;
61397;SDS011;47267;48.130;-2.040;2024-01-16T13:03:50;3.70;;;2.67;;
61397;SDS011;47267;48.130;-2.040;2024-01-16T13:06:17;4.55;;;2.90;;
61397;SDS011;47267;48.130;-2.040;2024-01-16T13:08:45;4.32;;;2.92;;
61397;SDS011;47267;48.130;-2.040;2024-01-16T13:11:14;4.63;;;2.80;;
61397;SDS011;47267;48.130;-2.040;2024-01-16T13:13:44;3.45;;;2.50;;
61397;SDS011;47267;48.130;-2.040;2024-01-16T13:16:12;5.43;;;3.20;;
61397;SDS011;47267;48.130;-2.040;2024-01-16T13:18:37;4.00;;;2.95;;
61397;SDS011;47267;48.130;-2.040;2024-01-16T13:21:03;4.57;;;2.80;;
61397;SDS011;47267;48.130;-2.040;2024-01-16T13:23:29;3.85;;;2.90;;
61397;SDS011;47267;48.130;-2.040;2024-01-16T13:25:55;4.47;;;2.92;;
61397;SDS011;47267;48.130;-2.040;2024-01-16T13:28:23;3.40;;;2.65;;
61397;SDS011;47267;48.130;-2.040;2024-01-16T13:30:49;3.72;;;2.88;;
61397;SDS011;47267;48.130;-2.040;2024-01-16T13:33:15;4.00;;;2.75;;
61397;SDS011;47267;48.130;-2.040;2024-01-16T13:35:45;4.07;;;2.90;;
61397;SDS011;47267;48.130;-2.040;2024-01-16T13:38:12;4.53;;;2.40;;
61397;SDS011;47267;48.130;-2.040;2024-01-16T13:40:40;4.35;;;2.70;;
61397;SDS011;47267;48.130;-2.040;2024-01-16T13:43:06;5.30;;;3.03;;
61397;SDS011;47267;48.130;-2.040;2024-01-16T13:45:32;4.88;;;2.78;;
61397;SDS011;47267;48.130;-2.040;2024-01-16T13:48:00;5.05;;;2.80;;
61397;SDS011;47267;48.130;-2.040;2024-01-16T13:50:26;5.07;;;2.85;;
61397;SDS011;47267;48.130;-2.040;2024-01-16T13:52:52;4.15;;;2.58;;
61397;SDS011;47267;48.130;-2.040;2024-01-16T13:55:21;5.38;;;2.80;;
61397;SDS011;47267;48.130;-2.040;2024-01-16T13:57:47;5.32;;;2.78;;
61397;SDS011;47267;48.130;-2.040;2024-01-16T14:00:16;5.35;;;2.70;;
61397;SDS011;47267;48.130;-2.040;2024-01-16T14:02:45;3.75;;;2.70;;
61397;SDS011;47267;48.130;-2.040;2024-01-16T14:05:12;3.70;;;2.80;;
61397;SDS011;47267;48.130;-2.040;2024-01-16T14:07:50;3.40;;;2.50;;
61397;SDS011;47267;48.130;-2.040;2024-01-16T14:10:21;5.07;;;2.97;;
61397;SDS011;47267;48.130;-2.040;2024-01-16T14:12:58;3.88;;;2.80;;
61397;SDS011;47267;48.130;-2.040;2024-01-16T14:15:31;4.97;;;2.28;;
61397;SDS011;47267;48.130;-2.040;2024-01-16T14:18:03;3.25;;;2.63;;
61397;SDS011;47267;48.130;-2.040;2024-01-16T14:20:30;3.97;;;2.70;;
61397;SDS011;47267;48.130;-2.040;2024-01-16T14:22:58;4.25;;;2.63;;
61397;SDS011;47267;48.130;-2.040;2024-01-16T14:25:25;3.70;;;2.35;;
61397;SDS011;47267;48.130;-2.040;2024-01-16T14:28:01;3.65;;;2.50;;
61397;SDS011;47267;48.130;-2.040;2024-01-16T14:30:31;5.10;;;2.38;;
61397;SDS011;47267;48.130;-2.040;2024-01-16T14:32:58;4.75;;;2.70;;
61397;SDS011;47267;48.130;-2.040;2024-01-16T14:35:24;3.70;;;2.28;;
61397;SDS011;47267;48.130;-2.040;2024-01-16T14:37:50;4.88;;;2.97;;
61397;SDS011;47267;48.130;-2.040;2024-01-16T14:40:16;2.75;;;2.13;;
61397;SDS011;47267;48.130;-2.040;2024-01-16T14:42:54;3.38;;;2.20;;
61397;SDS011;47267;48.130;-2.040;2024-01-16T14:45:22;3.67;;;2.33;;
61397;SDS011;47267;48.130;-2.040;2024-01-16T14:47:48;3.20;;;2.35;;
61397;SDS011;47267;48.130;-2.040;2024-01-16T14:50:16;3.30;;;2.40;;